sensor_id;sensor_type;location;lat;lon;timestamp;P1;durP1;ratioP1;P2;durP2;ratioP2
2486;SDS011;1254;49.144;8.212;2022-11-03T00:01:15;13.30;;;6.63;;
2486;SDS011;1254;49.144;8.212;2022-11-03T00:03:43;7.47;;;6.72;;
2486;SDS011;1254;49.144;8.212;2022-11-03T00:06:11;10.68;;;6.82;;
2486;SDS011;1254;49.144;8.212;2022-11-03T00:08:40;13.25;;;6.65;;
2486;SDS011;1254;49.144;8.212;2022-11-03T00:11:09;9.23;;;6.60;;
2486;SDS011;1254;49.144;8.212;2022-11-03T00:13:39;9.02;;;6.07;;
2486;SDS011;1254;49.144;8.212;2022-11-03T00:16:09;16.67;;;6.63;;
2486;SDS011;1254;49.144;8.212;2022-11-03T00:18:39;11.23;;;6.50;;
2486;SDS011;1254;49.144;8.212;2022-11-03T00:21:08;13.50;;;6.47;;
2486;SDS011;1254;49.144;8.212;2022-11-03T00:23:38;11.82;;;7.35;;
2486;SDS011;1254;49.144;8.212;2022-11-03T00:26:08;16.52;;;9.90;;
2486;SDS011;1254;49.144;8.212;2022-11-03T00:28:38;12.10;;;8.60;;
2486;SDS011;1254;49.144;8.212;2022-11-03T00:31:08;14.82;;;8.90;;
2486;SDS011;1254;49.144;8.212;2022-11-03T00:33:37;8.05;;;6.22;;
2486;SDS011;1254;49.144;8.212;2022-11-03T00:36:09;13.52;;;6.65;;
2486;SDS011;1254;49.144;8.212;2022-11-03T00:38:39;13.23;;;6.60;;
2486;SDS011;1254;49.144;8.212;2022-11-03T00:41:07;10.45;;;6.43;;
2486;SDS011;1254;49.144;8.212;2022-11-03T00:43:36;13.27;;;7.70;;
2486;SDS011;1254;49.144;8.212;2022-11-03T00:46:05;5.95;;;5.35;;
2486;SDS011;1254;49.144;8.212;2022-11-03T00:48:34;8.60;;;6.40;;
2486;SDS011;1254;49.144;8.212;2022-11-03T00:51:05;7.20;;;5.90;;
2486;SDS011;1254;49.144;8.212;2022-11-03T00:53:36;9.93;;;6.05;;
2486;SDS011;1254;49.144;8.212;2022-11-03T00:56:05;11.52;;;6.60;;
2486;SDS011;1254;49.144;8.212;2022-11-03T00:58:35;12.20;;;7.05;;
2486;SDS011;1254;49.144;8.212;2022-11-03T01:01:05;8.95;;;6.47;;
2486;SDS011;1254;49.144;8.212;2022-11-03T01:03:36;11.38;;;6.50;;
2486;SDS011;1254;49.144;8.212;2022-11-03T01:06:07;8.18;;;7.25;;
2486;SDS011;1254;49.144;8.212;2022-11-03T01:09:08;15.43;;;7.30;;
2486;SDS011;1254;49.144;8.212;2022-11-03T01:11:36;18.30;;;8.75;;
2486;SDS011;1254;49.144;8.212;2022-11-03T01:14:14;10.07;;;9.05;;
2486;SDS011;1254;49.144;8.212;2022-11-03T01:16:42;13.98;;;8.77;;
2486;SDS011;1254;49.144;8.212;2022-11-03T01:19:10;11.93;;;8.13;;
2486;SDS011;1254;49.144;8.212;2022-11-03T01:21:40;15.93;;;10.15;;
2486;SDS011;1254;49.144;8.212;2022-11-03T01:24:09;13.73;;;8.85;;
2486;SDS011;1254;49.144;8.212;2022-11-03T01:26:37;13.23;;;9.13;;
2486;SDS011;1254;49.144;8.212;2022-11-03T01:29:05;11.05;;;7.00;;
2486;SDS011;1254;49.144;8.212;2022-11-03T01:31:33;20.33;;;9.15;;
2486;SDS011;1254;49.144;8.212;2022-11-03T01:34:01;14.13;;;7.70;;
2486;SDS011;1254;49.144;8.212;2022-11-03T01:36:29;12.63;;;8.43;;
2486;SDS011;1254;49.144;8.212;2022-11-03T01:38:58;12.57;;;6.72;;
2486;SDS011;1254;49.144;8.212;2022-11-03T01:41:27;10.70;;;7.47;;
2486;SDS011;1254;49.144;8.212;2022-11-03T01:46:51;12.25;;;7.93;;
2486;SDS011;1254;49.144;8.212;2022-11-03T01:49:24;8.73;;;5.90;;
2486;SDS011;1254;49.144;8.212;2022-11-03T01:51:58;11.18;;;7.22;;
2486;SDS011;1254;49.144;8.212;2022-11-03T01:54:30;10.80;;;6.53;;
2486;SDS011;1254;49.144;8.212;2022-11-03T01:57:01;8.18;;;6.72;;
2486;SDS011;1254;49.144;8.212;2022-11-03T01:59:33;8.30;;;6.40;;
2486;SDS011;1254;49.144;8.212;2022-11-03T02:02:01;10.68;;;6.93;;
2486;SDS011;1254;49.144;8.212;2022-11-03T02:04:31;8.15;;;6.10;;
2486;SDS011;1254;49.144;8.212;2022-11-03T02:07:03;11.27;;;5.78;;
2486;SDS011;1254;49.144;8.212;2022-11-03T02:09:39;7.05;;;5.50;;
2486;SDS011;1254;49.144;8.212;2022-11-03T02:12:07;7.32;;;5.93;;
2486;SDS011;1254;49.144;8.212;2022-11-03T02:14:37;12.32;;;7.00;;
2486;SDS011;1254;49.144;8.212;2022-11-03T02:17:09;12.15;;;7.63;;
2486;SDS011;1254;49.144;8.212;2022-11-03T02:19:40;8.23;;;6.85;;
2486;SDS011;1254;49.144;8.212;2022-11-03T02:22:13;16.90;;;6.80;;
2486;SDS011;1254;49.144;8.212;2022-11-03T02:24:57;10.65;;;6.95;;
2486;SDS011;1254;49.144;8.212;2022-11-03T02:27:34;9.93;;;6.95;;
2486;SDS011;1254;49.144;8.212;2022-11-03T02:30:02;14.32;;;7.45;;
2486;SDS011;1254;49.144;8.212;2022-11-03T02:32:32;9.98;;;7.30;;
2486;SDS011;1254;49.144;8.212;2022-11-03T02:35:07;9.35;;;7.30;;
2486;SDS011;1254;49.144;8.212;2022-11-03T02:37:45;10.13;;;7.40;;
2486;SDS011;1254;49.144;8.212;2022-11-03T02:40:16;15.48;;;7.53;;
2486;SDS011;1254;49.144;8.212;2022-11-03T02:42:51;9.48;;;7.28;;
2486;SDS011;1254;49.144;8.212;2022-11-03T02:45:20;9.10;;;7.22;;
2486;SDS011;1254;49.144;8.212;2022-11-03T02:47:52;15.07;;;6.68;;
2486;SDS011;1254;49.144;8.212;2022-11-03T02:50:25;7.88;;;6.20;;
2486;SDS011;1254;49.144;8.212;2022-11-03T02:52:54;7.22;;;6.25;;
2486;SDS011;1254;49.144;8.212;2022-11-03T02:55:26;10.80;;;6.53;;
2486;SDS011;1254;49.144;8.212;2022-11-03T02:58:04;7.82;;;6.65;;
2486;SDS011;1254;49.144;8.212;2022-11-03T03:00:38;12.40;;;7.05;;
2486;SDS011;1254;49.144;8.212;2022-11-03T03:03:13;10.45;;;5.68;;
2486;SDS011;1254;49.144;8.212;2022-11-03T03:05:46;13.38;;;7.13;;
2486;SDS011;1254;49.144;8.212;2022-11-03T03:08:17;10.90;;;6.72;;
2486;SDS011;1254;49.144;8.212;2022-11-03T03:10:48;10.02;;;6.35;;
2486;SDS011;1254;49.144;8.212;2022-11-03T03:13:19;18.98;;;9.13;;
2486;SDS011;1254;49.144;8.212;2022-11-03T03:15:53;18.50;;;7.15;;
2486;SDS011;1254;49.144;8.212;2022-11-03T03:18:29;12.00;;;7.63;;
2486;SDS011;1254;49.144;8.212;2022-11-03T03:21:10;21.98;;;9.32;;
2486;SDS011;1254;49.144;8.212;2022-11-03T03:23:41;15.10;;;7.65;;
2486;SDS011;1254;49.144;8.212;2022-11-03T03:26:16;12.50;;;7.28;;
2486;SDS011;1254;49.144;8.212;2022-11-03T03:28:52;16.05;;;7.50;;
2486;SDS011;1254;49.144;8.212;2022-11-03T03:31:23;13.63;;;7.75;;
2486;SDS011;1254;49.144;8.212;2022-11-03T03:33:54;14.82;;;7.47;;
2486;SDS011;1254;49.144;8.212;2022-11-03T03:36:24;14.25;;;7.85;;
2486;SDS011;1254;49.144;8.212;2022-11-03T03:38:55;15.68;;;8.60;;
2486;SDS011;1254;49.144;8.212;2022-11-03T03:41:28;21.85;;;7.70;;
2486;SDS011;1254;49.144;8.212;2022-11-03T03:43:59;41.13;;;9.63;;
2486;SDS011;1254;49.144;8.212;2022-11-03T03:46:31;45.72;;;9.60;;
2486;SDS011;1254;49.144;8.212;2022-11-03T03:49:03;38.22;;;9.52;;
2486;SDS011;1254;49.144;8.212;2022-11-03T03:51:32;21.35;;;10.68;;
2486;SDS011;1254;49.144;8.212;2022-11-03T03:54:01;26.73;;;9.85;;
2486;SDS011;1254;49.144;8.212;2022-11-03T03:56:30;24.20;;;11.50;;
2486;SDS011;1254;49.144;8.212;2022-11-03T03:59:03;24.15;;;9.70;;
2486;SDS011;1254;49.144;8.212;2022-11-03T04:01:31;48.00;;;12.63;;
2486;SDS011;1254;49.144;8.212;2022-11-03T04:03:59;27.33;;;12.07;;
2486;SDS011;1254;49.144;8.212;2022-11-03T04:06:27;21.60;;;10.80;;
2486;SDS011;1254;49.144;8.212;2022-11-03T04:08:55;29.15;;;11.02;;
2486;SDS011;1254;49.144;8.212;2022-11-03T04:11:23;35.47;;;11.95;;
2486;SDS011;1254;49.144;8.212;2022-11-03T04:14:10;42.38;;;11.85;;
2486;SDS011;1254;49.144;8.212;2022-11-03T04:16:55;52.60;;;12.40;;
2486;SDS011;1254;49.144;8.212;2022-11-03T04:19:41;25.17;;;10.50;;
2486;SDS011;1254;49.144;8.212;2022-11-03T04:22:28;26.98;;;10.27;;
2486;SDS011;1254;49.144;8.212;2022-11-03T04:24:58;31.90;;;9.70;;
2486;SDS011;1254;49.144;8.212;2022-11-03T04:27:28;29.73;;;12.40;;
2486;SDS011;1254;49.144;8.212;2022-11-03T04:30:12;25.92;;;10.75;;
2486;SDS011;1254;49.144;8.212;2022-11-03T04:32:41;23.58;;;9.98;;
2486;SDS011;1254;49.144;8.212;2022-11-03T04:35:14;26.85;;;10.90;;
2486;SDS011;1254;49.144;8.212;2022-11-03T04:37:43;18.73;;;10.32;;
2486;SDS011;1254;49.144;8.212;2022-11-03T04:40:15;16.23;;;9.48;;
2486;SDS011;1254;49.144;8.212;2022-11-03T04:42:44;23.77;;;10.73;;
2486;SDS011;1254;49.144;8.212;2022-11-03T04:45:20;18.75;;;9.30;;
2486;SDS011;1254;49.144;8.212;2022-11-03T04:47:50;16.42;;;9.15;;
2486;SDS011;1254;49.144;8.212;2022-11-03T04:50:20;18.80;;;9.43;;
2486;SDS011;1254;49.144;8.212;2022-11-03T04:52:50;21.25;;;9.38;;
2486;SDS011;1254;49.144;8.212;2022-11-03T04:55:23;55.20;;;11.57;;
2486;SDS011;1254;49.144;8.212;2022-11-03T04:57:53;17.83;;;9.68;;
2486;SDS011;1254;49.144;8.212;2022-11-03T05:00:28;16.77;;;9.02;;
2486;SDS011;1254;49.144;8.212;2022-11-03T05:02:56;21.45;;;9.93;;
2486;SDS011;1254;49.144;8.212;2022-11-03T05:05:24;25.52;;;8.80;;
2486;SDS011;1254;49.144;8.212;2022-11-03T05:07:53;16.45;;;7.88;;
2486;SDS011;1254;49.144;8.212;2022-11-03T05:10:23;20.95;;;9.35;;
2486;SDS011;1254;49.144;8.212;2022-11-03T05:12:54;21.20;;;9.45;;
2486;SDS011;1254;49.144;8.212;2022-11-03T05:15:26;16.25;;;9.30;;
2486;SDS011;1254;49.144;8.212;2022-11-03T05:17:58;27.85;;;10.77;;
2486;SDS011;1254;49.144;8.212;2022-11-03T05:20:31;23.25;;;9.60;;
2486;SDS011;1254;49.144;8.212;2022-11-03T05:23:02;15.02;;;8.57;;
2486;SDS011;1254;49.144;8.212;2022-11-03T05:25:36;19.35;;;9.50;;
2486;SDS011;1254;49.144;8.212;2022-11-03T05:28:13;17.42;;;8.05;;
2486;SDS011;1254;49.144;8.212;2022-11-03T05:30:52;20.63;;;9.00;;
2486;SDS011;1254;49.144;8.212;2022-11-03T05:33:21;18.80;;;9.25;;
2486;SDS011;1254;49.144;8.212;2022-11-03T05:35:54;15.75;;;8.80;;
2486;SDS011;1254;49.144;8.212;2022-11-03T05:38:24;11.65;;;9.00;;
2486;SDS011;1254;49.144;8.212;2022-11-03T05:40:57;13.77;;;8.25;;
2486;SDS011;1254;49.144;8.212;2022-11-03T05:43:26;17.33;;;9.02;;
2486;SDS011;1254;49.144;8.212;2022-11-03T05:45:57;17.42;;;10.50;;
2486;SDS011;1254;49.144;8.212;2022-11-03T05:48:29;39.75;;;17.27;;
2486;SDS011;1254;49.144;8.212;2022-11-03T05:50:59;35.63;;;15.90;;
2486;SDS011;1254;49.144;8.212;2022-11-03T05:53:34;41.15;;;15.70;;
2486;SDS011;1254;49.144;8.212;2022-11-03T05:56:04;32.22;;;14.93;;
2486;SDS011;1254;49.144;8.212;2022-11-03T05:58:34;24.13;;;15.40;;
2486;SDS011;1254;49.144;8.212;2022-11-03T06:01:09;34.85;;;16.25;;
2486;SDS011;1254;49.144;8.212;2022-11-03T06:03:39;35.13;;;17.58;;
2486;SDS011;1254;49.144;8.212;2022-11-03T06:06:14;34.08;;;17.17;;
2486;SDS011;1254;49.144;8.212;2022-11-03T06:08:44;30.55;;;15.10;;
2486;SDS011;1254;49.144;8.212;2022-11-03T06:11:15;30.63;;;14.77;;
2486;SDS011;1254;49.144;8.212;2022-11-03T06:13:49;26.63;;;13.45;;
2486;SDS011;1254;49.144;8.212;2022-11-03T06:16:27;28.13;;;14.00;;
2486;SDS011;1254;49.144;8.212;2022-11-03T06:19:17;28.65;;;13.05;;
2486;SDS011;1254;49.144;8.212;2022-11-03T06:21:48;18.55;;;9.13;;
2486;SDS011;1254;49.144;8.212;2022-11-03T06:24:17;16.95;;;10.43;;
2486;SDS011;1254;49.144;8.212;2022-11-03T06:26:48;24.08;;;10.48;;
2486;SDS011;1254;49.144;8.212;2022-11-03T06:29:18;17.80;;;9.80;;
2486;SDS011;1254;49.144;8.212;2022-11-03T06:31:49;14.13;;;8.80;;
2486;SDS011;1254;49.144;8.212;2022-11-03T06:34:21;13.68;;;8.27;;
2486;SDS011;1254;49.144;8.212;2022-11-03T06:39:57;13.45;;;8.00;;
2486;SDS011;1254;49.144;8.212;2022-11-03T06:42:28;15.77;;;9.32;;
2486;SDS011;1254;49.144;8.212;2022-11-03T06:44:59;13.27;;;10.02;;
2486;SDS011;1254;49.144;8.212;2022-11-03T06:47:38;14.90;;;8.68;;
2486;SDS011;1254;49.144;8.212;2022-11-03T06:50:16;14.27;;;9.13;;
2486;SDS011;1254;49.144;8.212;2022-11-03T06:52:48;19.88;;;11.25;;
2486;SDS011;1254;49.144;8.212;2022-11-03T06:55:21;12.48;;;9.82;;
2486;SDS011;1254;49.144;8.212;2022-11-03T06:57:51;17.38;;;11.20;;
2486;SDS011;1254;49.144;8.212;2022-11-03T07:00:21;19.17;;;9.68;;
2486;SDS011;1254;49.144;8.212;2022-11-03T07:02:58;14.05;;;9.88;;
2486;SDS011;1254;49.144;8.212;2022-11-03T07:05:32;19.88;;;11.25;;
2486;SDS011;1254;49.144;8.212;2022-11-03T07:08:01;18.60;;;12.60;;
2486;SDS011;1254;49.144;8.212;2022-11-03T07:10:31;15.82;;;9.90;;
2486;SDS011;1254;49.144;8.212;2022-11-03T07:13:00;9.80;;;7.90;;
2486;SDS011;1254;49.144;8.212;2022-11-03T07:15:36;16.13;;;10.43;;
2486;SDS011;1254;49.144;8.212;2022-11-03T07:18:09;17.85;;;10.27;;
2486;SDS011;1254;49.144;8.212;2022-11-03T07:20:46;21.88;;;14.68;;
2486;SDS011;1254;49.144;8.212;2022-11-03T07:23:15;28.23;;;21.13;;
2486;SDS011;1254;49.144;8.212;2022-11-03T07:25:47;21.25;;;13.00;;
2486;SDS011;1254;49.144;8.212;2022-11-03T07:28:20;15.77;;;11.23;;
2486;SDS011;1254;49.144;8.212;2022-11-03T07:30:51;14.70;;;10.65;;
2486;SDS011;1254;49.144;8.212;2022-11-03T07:33:21;15.98;;;11.20;;
2486;SDS011;1254;49.144;8.212;2022-11-03T07:35:52;29.02;;;16.17;;
2486;SDS011;1254;49.144;8.212;2022-11-03T07:38:23;17.73;;;11.07;;
2486;SDS011;1254;49.144;8.212;2022-11-03T07:40:52;12.35;;;9.18;;
2486;SDS011;1254;49.144;8.212;2022-11-03T07:43:21;16.02;;;9.13;;
2486;SDS011;1254;49.144;8.212;2022-11-03T07:45:51;14.90;;;10.00;;
2486;SDS011;1254;49.144;8.212;2022-11-03T07:48:21;12.32;;;9.30;;
2486;SDS011;1254;49.144;8.212;2022-11-03T07:50:52;14.18;;;8.75;;
2486;SDS011;1254;49.144;8.212;2022-11-03T07:53:24;27.63;;;12.77;;
2486;SDS011;1254;49.144;8.212;2022-11-03T07:56:00;14.63;;;10.77;;
2486;SDS011;1254;49.144;8.212;2022-11-03T07:58:36;20.17;;;12.90;;
2486;SDS011;1254;49.144;8.212;2022-11-03T08:01:07;17.17;;;11.73;;
2486;SDS011;1254;49.144;8.212;2022-11-03T08:03:48;17.90;;;12.82;;
2486;SDS011;1254;49.144;8.212;2022-11-03T08:06:17;15.20;;;12.82;;
2486;SDS011;1254;49.144;8.212;2022-11-03T08:08:45;17.02;;;14.10;;
2486;SDS011;1254;49.144;8.212;2022-11-03T08:11:13;16.83;;;11.77;;
2486;SDS011;1254;49.144;8.212;2022-11-03T08:13:41;15.05;;;9.85;;
2486;SDS011;1254;49.144;8.212;2022-11-03T08:16:09;12.15;;;9.98;;
2486;SDS011;1254;49.144;8.212;2022-11-03T08:18:37;10.20;;;8.10;;
2486;SDS011;1254;49.144;8.212;2022-11-03T08:21:06;9.98;;;8.32;;
2486;SDS011;1254;49.144;8.212;2022-11-03T08:23:34;13.68;;;9.52;;
2486;SDS011;1254;49.144;8.212;2022-11-03T08:26:02;12.90;;;9.18;;
2486;SDS011;1254;49.144;8.212;2022-11-03T08:28:31;15.30;;;9.45;;
2486;SDS011;1254;49.144;8.212;2022-11-03T08:30:59;13.20;;;9.20;;
2486;SDS011;1254;49.144;8.212;2022-11-03T08:33:30;9.02;;;6.90;;
2486;SDS011;1254;49.144;8.212;2022-11-03T08:35:58;16.73;;;7.50;;
2486;SDS011;1254;49.144;8.212;2022-11-03T08:38:29;11.32;;;7.10;;
2486;SDS011;1254;49.144;8.212;2022-11-03T08:40:57;10.90;;;7.82;;
2486;SDS011;1254;49.144;8.212;2022-11-03T08:43:25;14.82;;;7.43;;
2486;SDS011;1254;49.144;8.212;2022-11-03T08:45:53;7.25;;;6.15;;
2486;SDS011;1254;49.144;8.212;2022-11-03T08:48:21;11.13;;;6.25;;
2486;SDS011;1254;49.144;8.212;2022-11-03T08:50:52;7.65;;;6.70;;
2486;SDS011;1254;49.144;8.212;2022-11-03T08:53:21;9.75;;;7.07;;
2486;SDS011;1254;49.144;8.212;2022-11-03T08:55:52;7.65;;;6.00;;
2486;SDS011;1254;49.144;8.212;2022-11-03T08:58:20;10.25;;;5.90;;
2486;SDS011;1254;49.144;8.212;2022-11-03T09:00:49;11.60;;;7.55;;
2486;SDS011;1254;49.144;8.212;2022-11-03T09:03:17;14.63;;;8.88;;
2486;SDS011;1254;49.144;8.212;2022-11-03T09:05:45;9.10;;;7.45;;
2486;SDS011;1254;49.144;8.212;2022-11-03T09:08:13;12.68;;;6.45;;
2486;SDS011;1254;49.144;8.212;2022-11-03T09:10:41;19.17;;;10.10;;
2486;SDS011;1254;49.144;8.212;2022-11-03T09:13:10;15.20;;;7.00;;
2486;SDS011;1254;49.144;8.212;2022-11-03T09:15:38;16.42;;;7.70;;
2486;SDS011;1254;49.144;8.212;2022-11-03T09:18:06;12.27;;;9.32;;
2486;SDS011;1254;49.144;8.212;2022-11-03T09:20:34;15.40;;;9.40;;
2486;SDS011;1254;49.144;8.212;2022-11-03T09:23:02;16.35;;;8.07;;
2486;SDS011;1254;49.144;8.212;2022-11-03T09:25:29;15.80;;;9.20;;
2486;SDS011;1254;49.144;8.212;2022-11-03T09:27:58;20.75;;;11.02;;
2486;SDS011;1254;49.144;8.212;2022-11-03T09:30:27;18.77;;;10.48;;
2486;SDS011;1254;49.144;8.212;2022-11-03T09:32:55;13.65;;;8.90;;
2486;SDS011;1254;49.144;8.212;2022-11-03T09:35:23;15.25;;;9.27;;
2486;SDS011;1254;49.144;8.212;2022-11-03T09:37:51;21.98;;;9.23;;
2486;SDS011;1254;49.144;8.212;2022-11-03T09:40:19;16.23;;;8.40;;
2486;SDS011;1254;49.144;8.212;2022-11-03T09:42:50;13.38;;;7.90;;
2486;SDS011;1254;49.144;8.212;2022-11-03T09:45:18;8.80;;;7.47;;
2486;SDS011;1254;49.144;8.212;2022-11-03T09:47:48;14.20;;;8.50;;
2486;SDS011;1254;49.144;8.212;2022-11-03T09:50:16;20.50;;;8.57;;
2486;SDS011;1254;49.144;8.212;2022-11-03T09:52:46;16.33;;;9.85;;
2486;SDS011;1254;49.144;8.212;2022-11-03T09:55:17;12.55;;;8.35;;
2486;SDS011;1254;49.144;8.212;2022-11-03T09:57:48;13.23;;;9.18;;
2486;SDS011;1254;49.144;8.212;2022-11-03T10:00:19;13.27;;;8.95;;
2486;SDS011;1254;49.144;8.212;2022-11-03T10:02:50;13.10;;;8.10;;
2486;SDS011;1254;49.144;8.212;2022-11-03T10:05:19;13.38;;;8.73;;
2486;SDS011;1254;49.144;8.212;2022-11-03T10:07:50;13.48;;;8.88;;
2486;SDS011;1254;49.144;8.212;2022-11-03T10:10:22;12.82;;;7.10;;
2486;SDS011;1254;49.144;8.212;2022-11-03T10:12:51;14.63;;;8.55;;
2486;SDS011;1254;49.144;8.212;2022-11-03T10:15:20;12.00;;;7.38;;
2486;SDS011;1254;49.144;8.212;2022-11-03T10:17:51;10.90;;;7.47;;
2486;SDS011;1254;49.144;8.212;2022-11-03T10:20:20;9.10;;;6.95;;
2486;SDS011;1254;49.144;8.212;2022-11-03T10:22:49;17.42;;;7.20;;
2486;SDS011;1254;49.144;8.212;2022-11-03T10:25:26;10.15;;;6.78;;
2486;SDS011;1254;49.144;8.212;2022-11-03T10:28:13;9.50;;;7.40;;
2486;SDS011;1254;49.144;8.212;2022-11-03T10:30:52;11.50;;;6.80;;
2486;SDS011;1254;49.144;8.212;2022-11-03T10:33:28;8.38;;;6.40;;
2486;SDS011;1254;49.144;8.212;2022-11-03T10:35:57;16.42;;;7.57;;
2486;SDS011;1254;49.144;8.212;2022-11-03T10:38:27;10.18;;;7.32;;
2486;SDS011;1254;49.144;8.212;2022-11-03T10:41:08;13.10;;;6.95;;
2486;SDS011;1254;49.144;8.212;2022-11-03T10:43:38;21.98;;;9.45;;
2486;SDS011;1254;49.144;8.212;2022-11-03T10:46:10;10.57;;;7.50;;
2486;SDS011;1254;49.144;8.212;2022-11-03T10:48:43;14.15;;;8.20;;
2486;SDS011;1254;49.144;8.212;2022-11-03T10:51:11;10.00;;;7.55;;
2486;SDS011;1254;49.144;8.212;2022-11-03T10:53:45;12.27;;;6.85;;
2486;SDS011;1254;49.144;8.212;2022-11-03T10:56:13;14.80;;;7.05;;
2486;SDS011;1254;49.144;8.212;2022-11-03T10:58:41;10.35;;;7.22;;
2486;SDS011;1254;49.144;8.212;2022-11-03T11:01:09;13.25;;;8.73;;
2486;SDS011;1254;49.144;8.212;2022-11-03T11:03:39;14.32;;;7.63;;
2486;SDS011;1254;49.144;8.212;2022-11-03T11:06:22;15.23;;;8.43;;
2486;SDS011;1254;49.144;8.212;2022-11-03T11:08:53;18.30;;;9.45;;
2486;SDS011;1254;49.144;8.212;2022-11-03T11:11:26;21.48;;;8.38;;
2486;SDS011;1254;49.144;8.212;2022-11-03T11:17:02;9.30;;;6.27;;
2486;SDS011;1254;49.144;8.212;2022-11-03T11:22:37;14.63;;;7.97;;
2486;SDS011;1254;49.144;8.212;2022-11-03T11:25:05;31.60;;;14.70;;
2486;SDS011;1254;49.144;8.212;2022-11-03T11:27:55;22.30;;;10.30;;
2486;SDS011;1254;49.144;8.212;2022-11-03T11:33:32;27.23;;;11.80;;
2486;SDS011;1254;49.144;8.212;2022-11-03T11:36:01;11.57;;;7.87;;
2486;SDS011;1254;49.144;8.212;2022-11-03T11:38:51;28.83;;;13.13;;
2486;SDS011;1254;49.144;8.212;2022-11-03T11:44:48;17.33;;;8.45;;
2486;SDS011;1254;49.144;8.212;2022-11-03T11:47:23;28.17;;;15.63;;
2486;SDS011;1254;49.144;8.212;2022-11-03T11:50:18;12.77;;;7.50;;
2486;SDS011;1254;49.144;8.212;2022-11-03T11:53:11;18.30;;;6.93;;
2486;SDS011;1254;49.144;8.212;2022-11-03T11:55:53;13.53;;;6.90;;
2486;SDS011;1254;49.144;8.212;2022-11-03T11:58:24;10.25;;;6.35;;
2486;SDS011;1254;49.144;8.212;2022-11-03T12:01:00;18.20;;;8.07;;
2486;SDS011;1254;49.144;8.212;2022-11-03T12:03:31;12.67;;;7.27;;
2486;SDS011;1254;49.144;8.212;2022-11-03T12:06:04;14.40;;;7.20;;
2486;SDS011;1254;49.144;8.212;2022-11-03T12:08:35;15.10;;;7.00;;
2486;SDS011;1254;49.144;8.212;2022-11-03T12:11:05;10.20;;;7.13;;
2486;SDS011;1254;49.144;8.212;2022-11-03T12:13:35;11.60;;;6.70;;
2486;SDS011;1254;49.144;8.212;2022-11-03T12:16:08;10.90;;;8.07;;
2486;SDS011;1254;49.144;8.212;2022-11-03T12:18:37;8.80;;;6.00;;
2486;SDS011;1254;49.144;8.212;2022-11-03T12:21:07;13.93;;;7.27;;
2486;SDS011;1254;49.144;8.212;2022-11-03T12:23:37;18.23;;;6.00;;
2486;SDS011;1254;49.144;8.212;2022-11-03T12:26:15;5.50;;;4.73;;
2486;SDS011;1254;49.144;8.212;2022-11-03T12:28:45;8.43;;;5.63;;
2486;SDS011;1254;49.144;8.212;2022-11-03T12:31:13;8.47;;;5.50;;
2486;SDS011;1254;49.144;8.212;2022-11-03T12:33:41;7.50;;;5.93;;
2486;SDS011;1254;49.144;8.212;2022-11-03T12:36:09;20.00;;;12.90;;
2486;SDS011;1254;49.144;8.212;2022-11-03T12:38:37;26.63;;;15.10;;
2486;SDS011;1254;49.144;8.212;2022-11-03T12:41:05;12.30;;;10.27;;
2486;SDS011;1254;49.144;8.212;2022-11-03T12:43:53;16.17;;;9.60;;
2486;SDS011;1254;49.144;8.212;2022-11-03T12:46:22;10.03;;;6.63;;
2486;SDS011;1254;49.144;8.212;2022-11-03T12:48:50;18.53;;;7.37;;
2486;SDS011;1254;49.144;8.212;2022-11-03T12:51:19;10.60;;;6.33;;
2486;SDS011;1254;49.144;8.212;2022-11-03T12:53:48;12.83;;;6.20;;
2486;SDS011;1254;49.144;8.212;2022-11-03T12:56:17;15.20;;;7.30;;
2486;SDS011;1254;49.144;8.212;2022-11-03T12:58:45;8.90;;;7.57;;
2486;SDS011;1254;49.144;8.212;2022-11-03T13:01:15;11.37;;;7.17;;
2486;SDS011;1254;49.144;8.212;2022-11-03T13:03:43;14.40;;;8.00;;
2486;SDS011;1254;49.144;8.212;2022-11-03T13:06:11;13.37;;;6.87;;
2486;SDS011;1254;49.144;8.212;2022-11-03T13:08:40;11.98;;;8.43;;
2486;SDS011;1254;49.144;8.212;2022-11-03T13:11:08;11.30;;;6.37;;
2486;SDS011;1254;49.144;8.212;2022-11-03T13:13:51;12.27;;;7.87;;
2486;SDS011;1254;49.144;8.212;2022-11-03T13:16:21;13.00;;;7.20;;
2486;SDS011;1254;49.144;8.212;2022-11-03T13:18:49;8.38;;;7.43;;
2486;SDS011;1254;49.144;8.212;2022-11-03T13:21:17;12.43;;;7.23;;
2486;SDS011;1254;49.144;8.212;2022-11-03T13:23:45;10.70;;;6.73;;
2486;SDS011;1254;49.144;8.212;2022-11-03T13:26:14;11.97;;;7.03;;
2486;SDS011;1254;49.144;8.212;2022-11-03T13:28:42;14.90;;;7.60;;
2486;SDS011;1254;49.144;8.212;2022-11-03T13:31:10;9.33;;;6.40;;
2486;SDS011;1254;49.144;8.212;2022-11-03T13:33:40;21.63;;;8.00;;
2486;SDS011;1254;49.144;8.212;2022-11-03T13:36:08;7.83;;;6.60;;
2486;SDS011;1254;49.144;8.212;2022-11-03T13:38:36;15.23;;;7.67;;
2486;SDS011;1254;49.144;8.212;2022-11-03T13:41:04;10.47;;;5.60;;
2486;SDS011;1254;49.144;8.212;2022-11-03T13:43:32;26.60;;;7.10;;
2486;SDS011;1254;49.144;8.212;2022-11-03T13:46:01;17.50;;;7.63;;
2486;SDS011;1254;49.144;8.212;2022-11-03T13:48:30;24.00;;;7.20;;
2486;SDS011;1254;49.144;8.212;2022-11-03T13:50:59;17.43;;;6.80;;
2486;SDS011;1254;49.144;8.212;2022-11-03T13:53:27;9.23;;;5.43;;
2486;SDS011;1254;49.144;8.212;2022-11-03T13:55:55;8.53;;;5.63;;
2486;SDS011;1254;49.144;8.212;2022-11-03T13:58:23;17.23;;;6.30;;
2486;SDS011;1254;49.144;8.212;2022-11-03T14:00:51;14.43;;;7.07;;
2486;SDS011;1254;49.144;8.212;2022-11-03T14:03:19;15.13;;;5.77;;
2486;SDS011;1254;49.144;8.212;2022-11-03T14:05:47;10.03;;;5.43;;
2486;SDS011;1254;49.144;8.212;2022-11-03T14:08:17;10.67;;;5.73;;
2486;SDS011;1254;49.144;8.212;2022-11-03T14:10:45;8.20;;;5.33;;
2486;SDS011;1254;49.144;8.212;2022-11-03T14:13:16;11.00;;;5.87;;
2486;SDS011;1254;49.144;8.212;2022-11-03T14:15:43;17.33;;;5.80;;
2486;SDS011;1254;49.144;8.212;2022-11-03T14:18:11;12.40;;;6.07;;
2486;SDS011;1254;49.144;8.212;2022-11-03T14:20:39;12.67;;;6.37;;
2486;SDS011;1254;49.144;8.212;2022-11-03T14:23:07;8.40;;;5.60;;
2486;SDS011;1254;49.144;8.212;2022-11-03T14:25:36;8.10;;;5.30;;
2486;SDS011;1254;49.144;8.212;2022-11-03T14:28:04;11.30;;;5.83;;
2486;SDS011;1254;49.144;8.212;2022-11-03T14:30:32;7.43;;;5.17;;
2486;SDS011;1254;49.144;8.212;2022-11-03T14:33:00;7.43;;;5.10;;
2486;SDS011;1254;49.144;8.212;2022-11-03T14:35:28;9.60;;;5.40;;
2486;SDS011;1254;49.144;8.212;2022-11-03T14:37:56;10.83;;;6.37;;
2486;SDS011;1254;49.144;8.212;2022-11-03T14:40:24;8.60;;;6.77;;
2486;SDS011;1254;49.144;8.212;2022-11-03T14:43:11;11.30;;;6.23;;
2486;SDS011;1254;49.144;8.212;2022-11-03T14:45:39;7.60;;;5.60;;
2486;SDS011;1254;49.144;8.212;2022-11-03T14:48:07;19.57;;;6.07;;
2486;SDS011;1254;49.144;8.212;2022-11-03T14:50:35;12.10;;;6.10;;
2486;SDS011;1254;49.144;8.212;2022-11-03T14:53:03;15.40;;;5.90;;
2486;SDS011;1254;49.144;8.212;2022-11-03T14:55:31;17.77;;;6.90;;
2486;SDS011;1254;49.144;8.212;2022-11-03T14:57:59;11.63;;;6.33;;
2486;SDS011;1254;49.144;8.212;2022-11-03T15:00:28;15.33;;;7.33;;
2486;SDS011;1254;49.144;8.212;2022-11-03T15:02:56;17.50;;;8.63;;
2486;SDS011;1254;49.144;8.212;2022-11-03T15:05:24;14.03;;;11.50;;
2486;SDS011;1254;49.144;8.212;2022-11-03T15:08:10;13.43;;;9.27;;
2486;SDS011;1254;49.144;8.212;2022-11-03T15:10:39;15.77;;;7.30;;
2486;SDS011;1254;49.144;8.212;2022-11-03T15:13:07;19.00;;;12.30;;
2486;SDS011;1254;49.144;8.212;2022-11-03T15:15:37;15.70;;;12.63;;
2486;SDS011;1254;49.144;8.212;2022-11-03T15:18:06;22.17;;;16.63;;
2486;SDS011;1254;49.144;8.212;2022-11-03T15:20:35;22.13;;;16.27;;
2486;SDS011;1254;49.144;8.212;2022-11-03T15:23:03;17.33;;;10.53;;
2486;SDS011;1254;49.144;8.212;2022-11-03T15:25:33;15.60;;;8.70;;
2486;SDS011;1254;49.144;8.212;2022-11-03T15:28:01;16.80;;;12.67;;
2486;SDS011;1254;49.144;8.212;2022-11-03T15:30:29;22.50;;;13.33;;
2486;SDS011;1254;49.144;8.212;2022-11-03T15:32:58;16.80;;;9.23;;
2486;SDS011;1254;49.144;8.212;2022-11-03T15:35:26;11.23;;;8.10;;
2486;SDS011;1254;49.144;8.212;2022-11-03T15:37:56;8.70;;;6.93;;
2486;SDS011;1254;49.144;8.212;2022-11-03T15:40:26;13.07;;;9.90;;
2486;SDS011;1254;49.144;8.212;2022-11-03T15:42:54;12.90;;;8.57;;